Linzy — SIRU — position and weather

sailwx.info

Track history (hours):
 
Tides and Currents Weather Stations Pressure Air Temp Water Temp Dewpoint Dewpoint Depression Visibility Wind Speed Wind Dir Waves Ship Positions

Linzy

Last reported at 2017-Mar-29 10:24 UTC. Time now 2017-Mar-29 11:09 UTC.
Position N 55°33' E 014°22'.

Length 15 m.

Type: Fishing. MMSI: 265507290.

Date/timePositionNaut miles runAvg speedWind from/ knotsBaromVisibWave heightAir tempDewpointWater temp
2017-Mar-29 10:24N 55°33' E 014°22'0 0.0
2017-Mar-29 07:18N 55°33' E 014°22'0 0.0
2017-Mar-29 04:30N 55°33' E 014°22'0 0.0
2017-Mar-29 00:18N 55°33' E 014°22'0 0.0
2017-Mar-28 23:30N 55°33' E 014°22'0 0.0
2017-Mar-28 22:30N 55°33' E 014°22'0 0.0
2017-Mar-28 21:30N 55°33' E 014°22'0 0.0
2017-Mar-28 16:12N 55°33' E 014°22'5 7.6
2017-Mar-28 15:31N 55°35' E 014°30'5 5.0
2017-Mar-28 14:33N 55°37' E 014°38'3 3.0
2017-Mar-28 13:30N 55°37' E 014°43'3 3.1
2017-Mar-28 12:25N 55°39' E 014°49'13 1.6
2017-Mar-28 04:31N 55°34' E 014°27'4 3.2
2017-Mar-28 03:24N 55°33' E 014°22'0 0.0
2017-Mar-27 22:30N 55°33' E 014°22'0 0.0
2017-Mar-27 18:24N 55°33' E 014°22'0 0.0
2017-Mar-27 17:24N 55°33' E 014°22'0 0.0
2017-Mar-27 15:12N 55°33' E 014°22'0 0.0
2017-Mar-27 13:18N 55°33' E 014°22'0 0.0
2017-Mar-27 11:18N 55°33' E 014°22'25 1.0
2017-Mar-26 10:33N 55°39' E 015°05'3 2.5
2017-Mar-26 09:32N 55°39' E 015°00'23 0.6
2017-Mar-24 17:06N 55°33' E 014°22'0 0.0
2017-Mar-24 16:30N 55°33' E 014°22'0 0.0
2017-Mar-24 13:24N 55°33' E 014°22'0 0.0
2017-Mar-24 11:30N 55°33' E 014°22'0 0.0
2017-Mar-24 10:24N 55°33' E 014°22'0 0.0
2017-Mar-23 16:06N 55°33' E 014°22'4 5.3
2017-Mar-23 15:19N 55°33' E 014°29'9 8.5
2017-Mar-23 14:17N 55°31' E 014°44'2 2.4
2017-Mar-23 13:34N 55°30' E 014°47'2 2.0
2017-Mar-23 12:29N 55°28' E 014°46'2 2.3
2017-Mar-23 11:32N 55°27' E 014°43'4 2.7
2017-Mar-23 10:03N 55°25' E 014°36'2 3.0
2017-Mar-23 09:32N 55°24' E 014°35'4 3.0
2017-Mar-23 08:19N 55°22' E 014°30'2 2.4
2017-Mar-23 07:17N 55°22' E 014°25'2 2.9
2017-Mar-23 06:28N 55°24' E 014°26'3 3.1
2017-Mar-23 05:33N 55°27' E 014°26'7 6.5
2017-Mar-23 04:30N 55°33' E 014°22'0 0.3
2017-Mar-23 03:10N 55°33' E 014°22'0 0.0
2017-Mar-23 02:22N 55°33' E 014°22'0 0.0
2017-Mar-22 23:22N 55°33' E 014°22'0 0.0
2017-Mar-22 21:28N 55°33' E 014°22'0 0.0
2017-Mar-22 19:28N 55°33' E 014°22'0 0.0
2017-Mar-22 18:28N 55°33' E 014°22'0 0.0
2017-Mar-22 16:22N 55°33' E 014°22'0 0.0
2017-Mar-22 14:10N 55°33' E 014°22'0 0.0
2017-Mar-22 05:10N 55°33' E 014°22'0 0.0
2017-Mar-21 10:22N 55°33' E 014°22'1 0.0
2017-Mar-20 17:33N 55°34' E 014°23'8 8.0
2017-Mar-20 16:33N 55°33' E 014°37'3 2.8
2017-Mar-20 15:33N 55°33' E 014°42'3 2.7
2017-Mar-20 14:24N 55°35' E 014°46'8 0.8
2017-Mar-20 05:19N 55°35' E 014°32'6 7.5
2017-Mar-20 04:31N 55°34' E 014°22'0 0.0
2017-Mar-19 18:23N 55°33' E 014°22'4 4.6
2017-Mar-19 17:27N 55°33' E 014°29'7 8.0
2017-Mar-19 16:33N 55°33' E 014°42'3 2.9
2017-Mar-19 15:22N 55°31' E 014°47'3 2.9
2017-Mar-19 14:28N 55°30' E 014°51'1 0.4
2017-Mar-19 11:11N 55°28' E 014°51'2 3.2
2017-Mar-19 10:34N 55°29' E 014°47'  
Track history (hours):
 
Tides and Currents Weather Stations Pressure Air Temp Water Temp Dewpoint Dewpoint Depression Visibility Wind Speed Wind Dir Waves Ship Positions

Linzy

Last reported at 2017-Mar-29 10:24 UTC. Time now 2017-Mar-29 11:09 UTC.
Position N 55°33' E 014°22'.

Length 15 m.

Type: Fishing. MMSI: 265507290.

Date/timePositionNaut miles runAvg speedWind from/ knotsBaromVisibWave heightAir tempDewpointWater temp
2017-Mar-29 10:24N 55°33' E 014°22'0 0.0
2017-Mar-29 07:18N 55°33' E 014°22'0 0.0
2017-Mar-29 04:30N 55°33' E 014°22'0 0.0
2017-Mar-29 00:18N 55°33' E 014°22'0 0.0
2017-Mar-28 23:30N 55°33' E 014°22'0 0.0
2017-Mar-28 22:30N 55°33' E 014°22'0 0.0
2017-Mar-28 21:30N 55°33' E 014°22'0 0.0
2017-Mar-28 16:12N 55°33' E 014°22'5 7.6
2017-Mar-28 15:31N 55°35' E 014°30'5 5.0
2017-Mar-28 14:33N 55°37' E 014°38'3 3.0
2017-Mar-28 13:30N 55°37' E 014°43'3 3.1
2017-Mar-28 12:25N 55°39' E 014°49'13 1.6
2017-Mar-28 04:31N 55°34' E 014°27'4 3.2
2017-Mar-28 03:24N 55°33' E 014°22'0 0.0
2017-Mar-27 22:30N 55°33' E 014°22'0 0.0
2017-Mar-27 18:24N 55°33' E 014°22'0 0.0
2017-Mar-27 17:24N 55°33' E 014°22'0 0.0
2017-Mar-27 15:12N 55°33' E 014°22'0 0.0
2017-Mar-27 13:18N 55°33' E 014°22'0 0.0
2017-Mar-27 11:18N 55°33' E 014°22'25 1.0
2017-Mar-26 10:33N 55°39' E 015°05'3 2.5
2017-Mar-26 09:32N 55°39' E 015°00'23 0.6
2017-Mar-24 17:06N 55°33' E 014°22'0 0.0
2017-Mar-24 16:30N 55°33' E 014°22'0 0.0
2017-Mar-24 13:24N 55°33' E 014°22'0 0.0
2017-Mar-24 11:30N 55°33' E 014°22'0 0.0
2017-Mar-24 10:24N 55°33' E 014°22'0 0.0
2017-Mar-23 16:06N 55°33' E 014°22'4 5.3
2017-Mar-23 15:19N 55°33' E 014°29'9 8.5
2017-Mar-23 14:17N 55°31' E 014°44'2 2.4
2017-Mar-23 13:34N 55°30' E 014°47'2 2.0
2017-Mar-23 12:29N 55°28' E 014°46'2 2.3
2017-Mar-23 11:32N 55°27' E 014°43'4 2.7
2017-Mar-23 10:03N 55°25' E 014°36'2 3.0
2017-Mar-23 09:32N 55°24' E 014°35'4 3.0
2017-Mar-23 08:19N 55°22' E 014°30'2 2.4
2017-Mar-23 07:17N 55°22' E 014°25'2 2.9
2017-Mar-23 06:28N 55°24' E 014°26'3 3.1
2017-Mar-23 05:33N 55°27' E 014°26'7 6.5
2017-Mar-23 04:30N 55°33' E 014°22'0 0.3
2017-Mar-23 03:10N 55°33' E 014°22'0 0.0
2017-Mar-23 02:22N 55°33' E 014°22'0 0.0
2017-Mar-22 23:22N 55°33' E 014°22'0 0.0
2017-Mar-22 21:28N 55°33' E 014°22'0 0.0
2017-Mar-22 19:28N 55°33' E 014°22'0 0.0
2017-Mar-22 18:28N 55°33' E 014°22'0 0.0
2017-Mar-22 16:22N 55°33' E 014°22'0 0.0
2017-Mar-22 14:10N 55°33' E 014°22'0 0.0
2017-Mar-22 05:10N 55°33' E 014°22'0 0.0
2017-Mar-21 10:22N 55°33' E 014°22'1 0.0
2017-Mar-20 17:33N 55°34' E 014°23'8 8.0
2017-Mar-20 16:33N 55°33' E 014°37'3 2.8
2017-Mar-20 15:33N 55°33' E 014°42'3 2.7
2017-Mar-20 14:24N 55°35' E 014°46'8 0.8
2017-Mar-20 05:19N 55°35' E 014°32'6 7.5
2017-Mar-20 04:31N 55°34' E 014°22'0 0.0
2017-Mar-19 18:23N 55°33' E 014°22'4 4.6
2017-Mar-19 17:27N 55°33' E 014°29'7 8.0
2017-Mar-19 16:33N 55°33' E 014°42'3 2.9
2017-Mar-19 15:22N 55°31' E 014°47'3 2.9
2017-Mar-19 14:28N 55°30' E 014°51'1 0.4
2017-Mar-19 11:11N 55°28' E 014°51'2 3.2
2017-Mar-19 10:34N 55°29' E 014°47'  

Dump ship's entire track history